Denny Terrace, South Carolina
Current Conditions -  °F | °C
As of 2:53 AM on Saturday 20 Dec 2014 (Local Time) from KCUB Reporting Station
Light Rain Light Rain  
Wind Chill: 48°   Ceiling: 7000
Heat Index: 48°   Visibility: 8mi
Dew Point: 40°   Wind: 0mph
Humidity: 74%   Direction: NA
Pressure: 30.18"   Gusts: NA
Location:  34.1179°N, 81.0612°W
Report Text: KCUB 200753Z AUTO 00000KT 8SM -RA OVC070 09/04 A3018 RMK AO2 RAB42 SLP219 P0000 T00890044
Loading
Personal Weather Stations






























Interactive Weather Map New forecast layout! Learn more

10-Day Weather Forecast

Advertisements
Track Severe Weather on mobile